Terminal Aerodrome Forecast
Issued by NWS

Home | Current Version | Previous Version | Text Only | Print | Product List | Glossary On
Versions: 1 2 3 4 5 6 7 8 9 10 11 12 13 14 15 16 17 18 19 20
469
FTUS44 KLZK 231945 AAA
TAFLIT
TAF AMD
KLIT 231945Z 2320/2418 21008KT P6SM SCT035 BKN250
     FM240000 17006KT P6SM BKN250
     FM241100 VRB03KT 5SM BR SCT250
     FM241300 23007KT P6SM SCT250=

USA.gov is the U.S. government's official web portal to all federal, state and local government web resources and services.